South Charleston, OH (45368)

7:28 PM EDT on August 03, 2015 (GMT -0400)
Werner Ent. Springfield, OH | | Change Station
CLOSE
Current Station
Personal Weather Station
Location: Springfield, OH
Elevation: 1048 ft
Nearby Weather Stations
Active Advisory: Severe Thunderstorm Watch Active Notice: Local Storm Report

Elev 1048 ft 39.90 °N, 83.73 °W | Updated 4 seconds ago

Clear
Clear
78.8 °F
Feels Like 80 °F
N
11.0
Wind Variable Wind from NW
Gusts 13.0 mph

Today
High -- | Low -- °F
--% Chance of Precip.
Yesterday
High -- | Low -- °F
Precip. -- in
6:35 AM 8:46 PM
Waning Gibbous, 83% visible
Pressure 29.85 in
Visibility 10.0 miles
Clouds Clear
Heat Index 80 °F
Dew Point 62 °F
Humidity 57%
Rainfall 0.30 in
Snow Depth Not available.
UV 0.0 out of 12
Pollen 6.30 out of 12
Air Quality Not available.
Flu Activity Not available.
METAR KSGH 032256Z AUTO 25011KT 10SM CLR 26/17 A2987 RMK AO2 T02550172 LTG DSNT NE SLP108

More Conditions Fewer Conditions

Pressure 29.85 in
Visibility 10.0 miles
Clouds Clear
Heat Index 80 °F
Dew Point 62 °F
Humidity 57%
Rainfall 0.30 in
Snow Depth Not available.
UV 0.0 out of 12
Pollen 6.30 out of 12
Air Quality Not available.
Flu Activity Not available.
METAR KSGH 032256Z AUTO 25011KT 10SM CLR 26/17 A2987 RMK AO2 T02550172 LTG DSNT NE SLP108

More Conditions Fewer Conditions

10-Day Weather Forecast

×

Almanac

Astronomy

Aug. 03, 2015 Rise Set
Actual Time
Civil Twilight
Nautical Twilight
Astronomical Twilight
Moon
Length of Visible Light
Length of Day
Tomorrow will be .
, % of the Moon is Illuminated

Today's Extremes

State Highs State Lows

Community

WunderPhotos

Upload Photos

1,843,786 photos uploaded!

WunderBlogs® & News

Nearby

Air Quality

  Air Quality AQ Index Pollutant
Not available.

Snow Depth

Station Depth Elevation

Earthquake Activity

City Distance Mag. Time & Date
Minimum magnitude displayed is 2.5.

Coastal Water Temperatures

Place Temperature

Stations

Nearby Weather Stations

Station Location Temp. Windchill Dew Point Humidity Wind Precip. Elev Updated Type
                   
Severe Thunderstorm Watch
Statement as of 7:24 PM EDT on August 03, 2015

Severe Thunderstorm Watch 467 remains in effect until 900 PM EDT

OH
. Ohio counties included are

Adams Brown Butler
Clark Clermont Clinton
Fayette Greene Hamilton
Highland Madison Montgomery
Preble Warren